Time;durP1;ratioP1;P1;durP2;ratioP2;P2;SDS_P1;SDS_P2;PMS_P1;PMS_P2;Temp;Humidity;BMP_temperature;BMP_pressure;BME280_temperature;BME280_humidity;BME280_pressure;Samples;Min_cycle;Max_cycle;Signal;HPM_P1;HPM_P2
2022/06/11 00:04:02;;;;;;;11.50;8.07;;;;;;;18.03;81.99;102024.78;10404831;28;20554;-76
2022/06/11 00:09:05;;;;;;;16.73;9.30;;;;;;;17.52;84.35;102026.66;10415807;28;20788;-76
2022/06/11 00:14:11;;;;;;;15.85;9.73;;;;;;;17.56;84.74;102038.91;10408089;28;20050;-75
2022/06/11 00:19:15;;;;;;;16.10;9.82;;;;;;;17.29;85.24;102034.13;10406963;28;20045;-76
2022/06/11 00:24:18;;;;;;;17.50;10.65;;;;;;;17.52;84.31;102037.06;10406084;28;20452;-74
2022/06/11 00:29:22;;;;;;;18.33;10.07;;;;;;;17.62;83.19;102034.63;10407054;28;20111;-75
2022/06/11 00:34:25;;;;;;;17.38;10.95;;;;;;;17.57;82.81;102034.53;10409993;28;20439;-75
2022/06/11 00:39:30;;;;;;;12.98;9.82;;;;;;;17.49;82.95;102041.38;10413478;28;20657;-75
2022/06/11 00:44:33;;;;;;;16.15;10.23;;;;;;;17.74;81.33;102037.41;10414592;28;20037;-75
2022/06/11 00:49:57;;;;;;;18.13;10.30;;;;;;;17.88;80.74;102035.84;10414219;28;20053;-75
2022/06/11 00:55:10;;;;;;;15.05;9.57;;;;;;;17.62;80.96;102030.28;10413893;28;20045;-75
2022/06/11 01:00:19;;;;;;;14.70;9.63;;;;;;;17.73;81.34;102026.09;10413829;28;20050;-75
2022/06/11 01:05:25;;;;;;;13.82;9.10;;;;;;;17.65;80.94;102022.50;10413941;28;20460;-75
2022/06/11 01:10:51;;;;;;;16.67;8.77;;;;;;;17.46;80.13;102023.09;10413486;28;20107;-75
2022/06/11 01:15:58;;;;;;;16.30;7.20;;;;;;;17.71;78.70;102022.59;10408446;28;20060;-76
2022/06/11 01:20:59;;;;;;;9.20;6.18;;;;;;;17.89;78.02;102021.97;10412098;28;20049;-75
2022/06/11 01:26:35;;;;;;;11.55;7.07;;;;;;;17.70;77.67;102030.41;10411252;28;20053;-75
2022/06/11 01:31:54;;;;;;;8.88;5.70;;;;;;;17.74;77.22;102026.97;10412209;28;20049;-75
2022/06/11 01:37:03;;;;;;;9.82;5.28;;;;;;;17.60;77.32;102025.03;10407968;28;20149;-75
2022/06/11 01:42:23;;;;;;;10.67;5.13;;;;;;;17.32;78.26;102028.09;10410311;28;20512;-75
2022/06/11 01:47:25;;;;;;;14.60;5.75;;;;;;;17.25;78.65;102032.31;10415871;28;20791;-75
2022/06/11 01:52:52;;;;;;;11.20;6.20;;;;;;;17.04;79.92;102033.72;10412575;28;20049;-75
2022/06/11 01:58:25;;;;;;;9.48;6.38;;;;;;;16.78;80.82;102020.19;10411451;28;20077;-75
2022/06/11 02:03:41;;;;;;;12.68;7.20;;;;;;;16.45;82.51;102027.41;10414686;28;20049;-75
2022/06/11 02:08:54;;;;;;;14.05;6.00;;;;;;;16.56;82.56;102026.75;10408966;28;20049;-74
2022/06/11 02:14:16;;;;;;;13.52;6.13;;;;;;;16.21;84.49;102026.91;10393911;28;20087;-75
2022/06/11 02:19:54;;;;;;;12.18;6.35;;;;;;;16.27;85.21;102032.25;10404946;28;20096;-75
2022/06/11 02:25:06;;;;;;;13.98;6.70;;;;;;;16.32;84.24;102021.06;10382801;28;20504;-76
2022/06/11 02:30:11;;;;;;;14.40;5.63;;;;;;;16.44;83.39;102033.44;10410826;28;20566;-75
2022/06/11 02:35:26;;;;;;;12.00;5.25;;;;;;;16.40;82.60;102026.44;10410531;28;20045;-75
2022/06/11 02:40:41;;;;;;;15.35;4.80;;;;;;;16.36;82.63;102027.22;10410433;28;20555;-75
2022/06/11 02:45:43;;;;;;;12.45;6.15;;;;;;;16.32;82.33;102031.47;10408811;28;20141;-74
2022/06/11 02:50:46;;;;;;;16.25;5.75;;;;;;;16.41;81.49;102036.00;10408597;28;20563;-75
2022/06/11 02:55:48;;;;;;;9.52;5.40;;;;;;;16.22;82.24;102039.06;10410029;28;20492;-75
2022/06/11 03:00:49;;;;;;;10.07;5.30;;;;;;;16.19;82.08;102050.28;10408761;28;20057;-75
2022/06/11 03:05:52;;;;;;;7.25;4.10;;;;;;;15.92;83.49;102054.06;10407386;28;20049;-75
2022/06/11 03:10:56;;;;;;;8.50;5.05;;;;;;;15.83;84.53;102057.31;10408557;28;20053;-75
2022/06/11 03:15:58;;;;;;;9.52;5.55;;;;;;;15.67;85.11;102045.66;10409208;28;20091;-75
2022/06/11 03:21:00;;;;;;;12.68;5.72;;;;;;;15.67;85.66;102055.19;10407888;28;20056;-75
2022/06/11 03:26:02;;;;;;;10.98;5.78;;;;;;;15.59;85.70;102057.59;10408307;28;20084;-75
2022/06/11 03:31:06;;;;;;;9.20;5.95;;;;;;;15.65;86.11;102068.13;10407935;28;20041;-75
2022/06/11 03:36:12;;;;;;;12.20;5.35;;;;;;;15.63;86.79;102068.94;10406255;28;20049;-74
2022/06/11 03:41:16;;;;;;;11.25;5.95;;;;;;;15.64;86.92;102066.34;10408030;28;20046;-75
2022/06/11 03:46:19;;;;;;;11.25;5.93;;;;;;;15.63;86.40;102079.31;10406909;28;20100;-74
2022/06/11 03:51:22;;;;;;;11.68;5.65;;;;;;;15.67;86.03;102078.56;10407653;28;20107;-76
2022/06/11 03:56:25;;;;;;;8.65;5.20;;;;;;;15.77;85.35;102077.91;10407320;28;20099;-75
2022/06/11 04:01:28;;;;;;;7.03;4.60;;;;;;;16.04;83.75;102082.03;10405930;28;20056;-75
2022/06/11 04:06:37;;;;;;;12.13;4.97;;;;;;;16.07;83.26;102084.69;10400824;28;20041;-74
2022/06/11 04:11:40;;;;;;;10.88;4.63;;;;;;;16.14;83.09;102089.19;10412750;28;20489;-75
2022/06/11 04:16:49;;;;;;;6.68;4.15;;;;;;;16.30;82.07;102094.72;10415086;28;20037;-75
2022/06/11 04:21:52;;;;;;;8.23;3.50;;;;;;;16.41;81.40;102088.03;10415615;28;20041;-75
2022/06/11 04:26:55;;;;;;;7.05;3.72;;;;;;;16.40;81.73;102100.97;10413390;28;20064;-74
2022/06/11 04:31:59;;;;;;;5.80;3.17;;;;;;;16.54;80.83;102109.09;10414011;28;20382;-75
2022/06/11 04:37:01;;;;;;;7.88;3.13;;;;;;;16.50;80.33;102109.00;10397542;28;20050;-76
2022/06/11 04:42:04;;;;;;;11.88;3.55;;;;;;;16.59;80.17;102108.34;10414604;28;20084;-76
2022/06/11 04:47:11;;;;;;;7.53;3.50;;;;;;;16.55;78.56;102110.84;10414500;28;20049;-76
2022/06/11 04:52:12;;;;;;;7.82;3.47;;;;;;;16.64;77.93;102116.25;10413871;28;20571;-76
2022/06/11 04:57:15;;;;;;;5.40;3.38;;;;;;;16.69;77.06;102119.81;10419571;28;20041;-76
2022/06/11 05:02:17;;;;;;;7.70;3.20;;;;;;;16.81;76.80;102116.56;10413997;28;20045;-76
2022/06/11 05:07:21;;;;;;;9.10;2.97;;;;;;;16.77;75.59;102123.44;10413730;28;20479;-76
2022/06/11 05:12:25;;;;;;;6.95;2.80;;;;;;;16.75;73.83;102124.25;10413412;28;20057;-76
2022/06/11 05:17:27;;;;;;;6.65;2.80;;;;;;;16.86;74.28;102127.06;10411637;28;20111;-77
2022/06/11 05:22:29;;;;;;;7.63;2.50;;;;;;;16.86;73.56;102127.94;10411849;28;20041;-75
2022/06/11 05:27:31;;;;;;;7.38;2.10;;;;;;;16.78;73.31;102139.91;10412775;28;20623;-77
2022/06/11 05:32:36;;;;;;;8.77;2.90;;;;;;;16.98;73.59;102132.53;10412298;28;20045;-76
2022/06/11 05:37:39;;;;;;;8.40;2.45;;;;;;;17.07;72.71;102144.84;10412038;28;20079;-76
2022/06/11 05:42:41;;;;;;;9.38;2.03;;;;;;;17.08;72.89;102144.88;10409293;28;20084;-75
2022/06/11 05:47:50;;;;;;;7.25;2.35;;;;;;;17.06;71.83;102153.50;10411095;28;20075;-76
2022/06/11 05:52:54;;;;;;;14.00;2.67;;;;;;;17.24;72.17;102150.34;10408600;28;20049;-76
2022/06/11 05:58:00;;;;;;;10.20;2.70;;;;;;;17.10;71.13;102152.72;10410223;28;20055;-76
2022/06/11 06:03:02;;;;;;;10.45;2.65;;;;;;;17.50;70.78;102152.56;10409014;28;20050;-76
2022/06/11 06:08:04;;;;;;;24.08;3.15;;;;;;;17.41;69.92;102154.13;10408944;28;20037;-76
2022/06/11 06:13:45;;;;;;;19.17;3.00;;;;;;;17.52;69.40;102156.06;10407417;28;20124;-75
2022/06/11 06:18:27;;;;;;;7.13;1.80;;;;;;;17.35;67.84;102169.66;10409346;28;20045;-75
2022/06/11 06:23:31;;;;;;;12.70;2.45;;;;;;;17.77;68.87;102159.94;10411008;28;20460;-75
2022/06/11 06:28:34;;;;;;;6.97;1.73;;;;;;;17.61;67.61;102161.41;10409047;28;20095;-75
2022/06/11 06:33:37;;;;;;;11.00;2.88;;;;;;;17.76;68.17;102159.06;10409904;28;20045;-76
2022/06/11 06:38:39;;;;;;;9.88;2.15;;;;;;;17.94;66.87;102155.00;10410057;28;20049;-76
2022/06/11 06:43:41;;;;;;;9.55;2.80;;;;;;;17.95;66.12;102162.00;10409824;28;20037;-75
2022/06/11 06:48:44;;;;;;;9.27;2.08;;;;;;;18.23;67.38;102170.22;10409927;28;20061;-76
2022/06/11 06:53:45;;;;;;;8.15;1.90;;;;;;;18.97;65.55;102173.81;10405805;28;20052;-77
2022/06/11 06:58:47;;;;;;;16.60;2.70;;;;;;;19.05;63.33;102175.63;10403937;28;20061;-76
2022/06/11 07:03:49;;;;;;;16.58;3.10;;;;;;;19.57;63.70;102170.06;10407428;28;20447;-76
2022/06/11 07:09:11;;;;;;;11.38;2.30;;;;;;;19.29;62.07;102169.78;10405768;28;20041;-76
2022/06/11 07:14:12;;;;;;;12.05;2.17;;;;;;;19.75;61.90;102174.56;10407875;28;20046;-76
2022/06/11 07:19:19;;;;;;;10.18;2.13;;;;;;;19.89;61.64;102172.06;10412787;28;20053;-76
2022/06/11 07:24:25;;;;;;;14.18;2.83;;;;;;;19.92;61.79;102166.88;10405643;28;20052;-77
2022/06/11 07:29:32;;;;;;;8.68;1.85;;;;;;;20.25;60.13;102163.59;10405350;28;20132;-77
2022/06/11 07:34:37;;;;;;;13.50;2.60;;;;;;;20.80;61.45;102154.28;10405296;28;20041;-76
2022/06/11 07:39:39;;;;;;;8.52;1.90;;;;;;;20.70;57.49;102162.91;10404741;28;20045;-76
2022/06/11 07:44:41;;;;;;;11.85;2.05;;;;;;;20.79;58.95;102157.75;10405378;28;20489;-78
2022/06/11 07:49:42;;;;;;;14.32;2.33;;;;;;;21.34;58.27;102153.47;10406681;28;20515;-76
2022/06/11 07:54:44;;;;;;;19.80;2.10;;;;;;;20.81;56.26;102156.03;10407852;28;20046;-77
2022/06/11 07:59:45;;;;;;;9.80;2.22;;;;;;;21.72;56.88;102157.91;10405936;28;20050;-76
2022/06/11 08:04:47;;;;;;;15.40;2.50;;;;;;;21.82;55.45;102154.41;10406215;28;20533;-77
2022/06/11 08:09:49;;;;;;;15.40;2.55;;;;;;;22.08;56.14;102150.84;10405302;28;20049;-77
2022/06/11 08:14:56;;;;;;;8.27;1.77;;;;;;;22.56;57.77;102169.13;10406705;28;20419;-78
2022/06/11 08:20:06;;;;;;;12.60;1.92;;;;;;;21.79;54.42;102174.50;10406134;28;20041;-78
2022/06/11 08:25:07;;;;;;;7.70;1.60;;;;;;;21.18;55.01;102171.84;10399527;28;20087;-77
2022/06/11 08:30:12;;;;;;;16.60;2.45;;;;;;;22.01;53.34;102175.34;10399294;28;20041;-75
2022/06/11 08:35:16;;;;;;;6.95;1.17;;;;;;;20.98;54.30;102179.66;10405899;28;20048;-76
2022/06/11 08:40:28;;;;;;;11.30;1.85;;;;;;;20.88;56.11;102178.75;10388271;28;20084;-76
2022/06/11 08:45:39;;;;;;;10.80;2.08;;;;;;;21.72;54.22;102171.00;10401491;28;20034;-76
2022/06/11 08:50:53;;;;;;;10.57;1.65;;;;;;;20.92;54.55;102185.72;10399169;28;20042;-76
2022/06/11 08:55:56;;;;;;;16.33;1.30;;;;;;;21.05;56.35;102176.16;10435412;28;20041;-76
2022/06/11 09:01:13;;;;;;;13.77;2.53;;;;;;;21.41;53.54;102186.69;10411399;28;20061;-76
2022/06/11 09:06:38;;;;;;;8.65;1.58;;;;;;;21.22;53.58;102188.44;10412641;28;20053;-76
2022/06/11 09:11:46;;;;;;;8.63;1.80;;;;;;;21.35;52.53;102184.06;10409663;28;20092;-76
2022/06/11 09:16:54;;;;;;;12.32;2.55;;;;;;;21.55;55.29;102173.59;10406737;28;20049;-76
2022/06/11 09:22:18;;;;;;;37.67;3.83;;;;;;;22.87;51.88;102175.97;10413035;28;20584;-76
2022/06/11 09:27:28;;;;;;;8.98;2.03;;;;;;;22.65;53.40;102184.81;10411901;28;20046;-77
2022/06/11 09:32:33;;;;;;;10.20;2.13;;;;;;;21.83;54.67;102187.63;10403876;28;20046;-76
2022/06/11 09:38:13;;;;;;;10.90;2.10;;;;;;;23.06;52.39;102185.47;10412961;28;20120;-77
2022/06/11 09:43:34;;;;;;;13.05;2.35;;;;;;;21.67;54.32;102184.13;10379257;28;20144;-78
2022/06/11 09:48:41;;;;;;;6.28;2.00;;;;;;;22.01;53.70;102185.84;10412273;28;20075;-76
2022/06/11 09:54:03;;;;;;;10.35;2.38;;;;;;;23.31;52.44;102189.78;10412282;28;20053;-76
2022/06/11 09:59:20;;;;;;;10.60;2.05;;;;;;;22.95;52.98;102188.19;10388836;28;20065;-77
2022/06/11 10:04:33;;;;;;;9.85;1.90;;;;;;;22.53;50.89;102190.13;10396600;28;20074;-79
2022/06/11 10:09:37;;;;;;;13.55;1.88;;;;;;;23.28;46.45;102193.25;10405861;28;20083;-76
2022/06/11 10:14:45;;;;;;;7.03;1.60;;;;;;;22.86;45.71;102195.25;10407110;28;20041;-77
2022/06/11 10:19:53;;;;;;;7.90;1.95;;;;;;;23.05;46.21;102204.75;10410057;28;20045;-76
2022/06/11 10:25:14;;;;;;;11.27;2.03;;;;;;;22.26;47.11;102206.81;10407472;28;20068;-77
2022/06/11 10:30:39;;;;;;;10.15;1.48;;;;;;;23.35;44.68;102207.25;10391944;28;20484;-77
2022/06/11 10:36:11;;;;;;;11.38;2.05;;;;;;;23.31;43.57;102211.66;10400314;28;20091;-78
2022/06/11 10:41:23;;;;;;;8.88;1.60;;;;;;;22.70;47.31;102211.06;10390243;28;20129;-77
2022/06/11 10:46:24;;;;;;;7.00;1.55;;;;;;;23.23;45.26;102213.47;10405945;28;20494;-76
2022/06/11 10:51:32;;;;;;;11.68;1.90;;;;;;;23.09;45.68;102210.88;10407341;28;20045;-76
2022/06/11 10:56:57;;;;;;;7.40;1.73;;;;;;;23.37;44.60;102211.63;10397464;28;20052;-76
2022/06/11 11:02:11;;;;;;;12.57;2.05;;;;;;;23.65;44.88;102206.13;10401658;28;20123;-76
2022/06/11 11:07:19;;;;;;;6.65;1.73;;;;;;;23.79;45.15;102218.34;10402373;28;20099;-75
2022/06/11 11:12:33;;;;;;;10.88;2.70;;;;;;;23.23;44.63;102205.56;10406499;28;20053;-76
2022/06/11 11:17:35;;;;;;;8.43;1.83;;;;;;;23.79;45.28;102202.53;10404614;28;20562;-76
2022/06/11 11:22:40;;;;;;;10.43;1.90;;;;;;;23.35;46.16;102197.59;10408431;28;20046;-78
2022/06/11 11:27:47;;;;;;;9.57;2.10;;;;;;;23.78;44.39;102201.66;10408566;28;20393;-79
2022/06/11 11:32:48;;;;;;;9.13;2.10;;;;;;;23.70;45.31;102192.94;10409239;28;20045;-77
2022/06/11 11:38:12;;;;;;;14.43;1.75;;;;;;;22.43;46.16;102194.53;10410384;28;20088;-78
2022/06/11 11:43:16;;;;;;;11.70;2.15;;;;;;;22.94;46.76;102185.56;10409861;28;20072;-82
2022/06/11 11:48:29;;;;;;;11.95;2.97;;;;;;;22.89;48.60;102192.63;10410302;28;20056;-78
2022/06/11 11:53:58;;;;;;;10.13;2.10;;;;;;;23.61;44.53;102181.63;10405327;28;20037;-76
2022/06/11 11:59:23;;;;;;;8.43;1.70;;;;;;;22.77;44.55;102186.53;10400619;28;20519;-78
2022/06/11 12:04:35;;;;;;;12.82;2.33;;;;;;;22.93;45.09;102178.56;10408090;28;20408;-80
2022/06/11 12:09:48;;;;;;;11.95;2.25;;;;;;;24.15;44.13;102189.94;10403096;28;20046;-76
2022/06/11 12:14:54;;;;;;;11.10;2.50;;;;;;;23.86;44.91;102172.66;10401854;28;20048;-76
2022/06/11 12:20:04;;;;;;;9.32;1.67;;;;;;;24.50;44.75;102165.81;10406212;28;20060;-76
2022/06/11 12:25:21;;;;;;;10.98;1.48;;;;;;;23.75;44.50;102181.50;10407933;28;20493;-75
2022/06/11 12:30:26;;;;;;;7.95;1.73;;;;;;;23.70;47.90;102170.16;10407289;28;20057;-76
2022/06/11 12:35:41;;;;;;;13.65;1.60;;;;;;;23.54;46.19;102176.44;10410490;28;20038;-76
2022/06/11 12:40:56;;;;;;;12.40;1.70;;;;;;;23.73;46.15;102172.75;10417378;28;20049;-76
2022/06/11 12:46:26;;;;;;;11.70;2.22;;;;;;;24.70;46.42;102168.22;10409308;28;20053;-75
2022/06/11 12:51:41;;;;;;;7.05;1.63;;;;;;;24.45;46.30;102159.75;10411501;28;20500;-76
2022/06/11 12:57:04;;;;;;;8.80;2.08;;;;;;;22.62;46.85;102165.56;10411515;28;20054;-78
2022/06/11 13:02:17;;;;;;;13.82;2.30;;;;;;;22.47;47.67;102169.16;10406112;28;20053;-75
2022/06/11 13:07:49;;;;;;;8.43;1.85;;;;;;;23.73;47.14;102166.63;10405446;28;20124;-76
2022/06/11 13:13:20;;;;;;;10.57;2.03;;;;;;;22.91;49.78;102154.03;10421911;28;20112;-75
2022/06/11 13:18:55;;;;;;;8.60;2.10;;;;;;;23.61;47.84;102163.19;10410966;28;20049;-76
2022/06/11 13:24:05;;;;;;;601.30;41.05;;;;;;;23.57;45.79;102164.13;10413554;28;20042;-76
2022/06/11 13:29:22;;;;;;;13.02;2.00;;;;;;;23.54;46.37;102158.03;10411941;28;20049;-75
2022/06/11 13:35:01;;;;;;;9.05;1.90;;;;;;;24.43;45.59;102163.28;10415560;28;20103;-76
2022/06/11 13:40:17;;;;;;;12.57;2.05;;;;;;;24.43;46.56;102168.56;10407829;28;20554;-76
2022/06/11 13:45:55;;;;;;;6.75;1.92;;;;;;;24.64;45.42;102157.75;10405435;28;20037;-76
2022/06/11 13:51:15;;;;;;;6.32;1.60;;;;;;;24.67;45.55;102156.84;10407655;28;20064;-77
2022/06/11 13:56:44;;;;;;;10.02;1.90;;;;;;;25.24;46.15;102158.66;10413020;28;20041;-77
2022/06/11 14:01:46;;;;;;;7.47;1.90;;;;;;;25.01;46.34;102151.97;10410085;28;20481;-77
2022/06/11 14:06:48;;;;;;;8.65;1.80;;;;;;;24.54;45.57;102150.84;10415896;28;20046;-76
2022/06/11 14:11:51;;;;;;;11.63;1.80;;;;;;;23.82;47.18;102150.75;10405484;28;20140;-76
2022/06/11 14:16:52;;;;;;;648.75;125.00;;;;;;;23.82;48.36;102148.13;10409056;28;20100;-76
2022/06/11 14:21:56;;;;;;;8.30;2.13;;;;;;;24.37;48.09;102140.53;10409854;28;20041;-76
2022/06/11 14:26:57;;;;;;;14.00;2.15;;;;;;;23.70;49.07;102146.47;10405812;28;20046;-75
2022/06/11 14:32:08;;;;;;;8.85;2.00;;;;;;;23.57;48.94;102152.72;10415607;28;20049;-75
2022/06/11 14:37:10;;;;;;;7.85;2.20;;;;;;;24.07;49.02;102132.09;10407798;28;20037;-76
2022/06/11 14:42:21;;;;;;;10.07;1.90;;;;;;;24.14;46.20;102130.28;10412828;28;20064;-76
2022/06/11 14:47:51;;;;;;;6.88;2.10;;;;;;;24.54;44.20;102129.75;10397428;28;20057;-76
2022/06/11 14:53:03;;;;;;;8.00;2.35;;;;;;;24.38;43.89;102119.44;10394200;28;20059;-77
2022/06/11 14:58:40;;;;;;;7.88;2.05;;;;;;;24.25;41.58;102123.09;10403247;28;20049;-76
2022/06/11 15:03:59;;;;;;;6.50;1.92;;;;;;;24.31;44.82;102122.16;10395855;28;20125;-76
2022/06/11 15:09:25;;;;;;;10.03;2.07;;;;;;;24.15;44.84;102122.34;10414549;28;20061;-76
2022/06/11 15:14:44;;;;;;;8.55;2.05;;;;;;;24.51;44.21;102114.00;10408234;28;20089;-76
2022/06/11 15:19:57;;;;;;;9.40;1.90;;;;;;;24.21;43.54;102121.41;10414174;28;20107;-78
2022/06/11 15:25:05;;;;;;;1999.90;999.90;;;;;;;23.92;44.57;102133.13;10394623;28;20136;-76
2022/06/11 15:30:19;;;;;;;1999.90;999.90;;;;;;;23.29;46.85;102131.91;10388777;28;20473;-77
2022/06/11 15:35:41;;;;;;;1999.90;999.90;;;;;;;23.81;44.96;102116.53;10397307;28;20068;-77
2022/06/11 15:40:51;;;;;;;10.50;2.30;;;;;;;23.77;45.51;102129.75;10417070;28;20509;-74
2022/06/11 15:45:59;;;;;;;7.90;1.98;;;;;;;23.85;44.61;102126.16;10433934;28;20037;-77
2022/06/11 15:51:13;;;;;;;8.48;2.67;;;;;;;23.79;45.29;102128.88;10418580;28;20447;-77
2022/06/11 15:56:28;;;;;;;11.32;2.58;;;;;;;23.83;46.06;102127.94;10414895;28;20050;-77
2022/06/11 16:01:29;;;;;;;10.77;2.58;;;;;;;23.92;44.96;102117.31;10428077;28;20049;-78
2022/06/11 16:06:41;;;;;;;8.32;2.20;;;;;;;23.77;45.55;102111.34;10420041;28;20041;-77
2022/06/11 16:11:52;;;;;;;8.10;2.30;;;;;;;23.69;44.48;102128.94;10444592;28;20045;-78
2022/06/11 16:16:59;;;;;;;9.82;3.30;;;;;;;23.57;46.47;102132.56;10448070;28;20056;-76
2022/06/11 16:22:19;;;;;;;8.30;2.40;;;;;;;23.35;45.62;102134.50;10403936;28;20508;-76
2022/06/11 16:27:28;;;;;;;11.05;2.08;;;;;;;23.23;45.97;102129.34;10419605;28;20056;-77
2022/06/11 16:32:31;;;;;;;10.80;3.08;;;;;;;23.47;46.86;102135.28;10401340;28;20053;-76
2022/06/11 16:37:37;;;;;;;13.20;2.85;;;;;;;23.31;45.11;102138.03;10406226;28;20465;-77
2022/06/11 16:42:48;;;;;;;10.15;2.35;;;;;;;23.13;45.95;102139.88;10425965;28;20041;-76
2022/06/11 16:48:14;;;;;;;17.33;3.30;;;;;;;23.37;46.73;102131.88;10411507;28;20084;-76
2022/06/11 16:59:12;;;;;;;1239.22;97.30;;;;;;;23.00;44.94;102127.72;10416735;28;20068;-77
2022/06/11 17:04:15;;;;;;;1999.90;999.90;;;;;;;23.09;44.43;102129.41;10400683;28;20056;-76
2022/06/11 17:09:34;;;;;;;1999.90;999.90;;;;;;;23.17;45.34;102130.25;10417150;28;20056;-76
2022/06/11 17:14:35;;;;;;;1999.90;999.90;;;;;;;23.06;45.61;102119.78;10417252;28;20057;-76
2022/06/11 17:19:39;;;;;;;36.63;20.20;;;;;;;23.06;44.88;102132.91;10415750;28;20141;-76
2022/06/11 17:24:42;;;;;;;0.25;0.20;;;;;;;23.05;45.96;102120.66;10375952;28;1104756;-76
2022/06/11 17:29:45;;;;;;;0.17;0.10;;;;;;;22.76;43.47;102129.59;10405530;28;20064;-77
2022/06/11 17:34:52;;;;;;;0.10;0.10;;;;;;;22.60;43.09;102139.31;10407179;28;20061;-76
2022/06/11 17:39:55;;;;;;;0.00;0.00;;;;;;;22.71;42.84;102136.66;10416181;28;20067;-76
2022/06/11 17:44:57;;;;;;;11.63;10.43;;;;;;;22.54;43.55;102133.22;10405636;28;20046;-76
2022/06/11 17:49:59;;;;;;;1.70;0.80;;;;;;;22.40;43.98;102136.78;10411349;28;20053;-76
2022/06/11 17:55:02;;;;;;;2.60;0.77;;;;;;;22.40;44.41;102146.44;10394048;28;20125;-77
2022/06/11 18:00:10;;;;;;;5.00;3.83;;;;;;;22.29;44.88;102143.81;10419763;28;20049;-77
2022/06/11 18:05:21;;;;;;;3.95;1.00;;;;;;;21.89;45.33;102136.03;10392984;28;20501;-77
2022/06/11 18:10:36;;;;;;;8.15;1.80;;;;;;;21.97;43.69;102137.75;10431310;28;20473;-77
2022/06/11 18:15:44;;;;;;;6.53;1.45;;;;;;;21.77;43.07;102140.44;10417752;28;20115;-78
2022/06/11 18:20:46;;;;;;;7.70;1.50;;;;;;;21.71;44.03;102140.41;10414773;28;20768;-77
2022/06/11 18:25:51;;;;;;;5.90;1.48;;;;;;;21.62;44.96;102136.06;10411976;28;20434;-76
2022/06/11 18:30:52;;;;;;;7.43;1.77;;;;;;;21.39;46.33;102149.13;10405021;28;20046;-77
2022/06/11 18:35:54;;;;;;;9.02;1.70;;;;;;;21.21;47.63;102145.63;10417584;28;20485;-77
2022/06/11 18:40:56;;;;;;;7.15;1.42;;;;;;;21.27;46.76;102149.09;10415972;28;20116;-77
2022/06/11 18:45:57;;;;;;;7.75;1.75;;;;;;;20.78;46.39;102140.28;10417231;28;20037;-78
2022/06/11 18:50:59;;;;;;;8.13;2.03;;;;;;;20.80;46.17;102154.28;10410604;28;20096;-77
2022/06/11 18:56:02;;;;;;;8.25;1.52;;;;;;;20.63;47.67;102140.19;10408044;28;20042;-76
2022/06/11 19:01:04;;;;;;;6.68;1.60;;;;;;;20.55;46.96;102146.28;10395509;28;20401;-76
2022/06/11 19:06:07;;;;;;;12.30;2.25;;;;;;;20.54;46.79;102151.53;10416156;28;20042;-76
2022/06/11 19:11:08;;;;;;;7.88;1.60;;;;;;;20.29;48.60;102151.41;10416484;28;20509;-78
2022/06/11 19:16:10;;;;;;;5.43;1.60;;;;;;;20.11;51.63;102153.03;10415782;28;20037;-77
2022/06/11 19:21:12;;;;;;;7.45;1.80;;;;;;;19.86;56.57;102151.13;10415923;28;20092;-77
2022/06/11 19:26:13;;;;;;;4.50;1.52;;;;;;;19.62;58.78;102156.13;10415930;28;20045;-76
2022/06/11 19:31:15;;;;;;;5.68;1.55;;;;;;;19.44;61.42;102163.84;10416049;28;20103;-77
2022/06/11 19:36:23;;;;;;;7.57;1.45;;;;;;;19.40;54.23;102159.47;10415772;28;20046;-76
2022/06/11 19:41:26;;;;;;;5.25;1.40;;;;;;;19.26;57.20;102160.19;10415331;28;20045;-77
2022/06/11 19:46:28;;;;;;;9.95;1.48;;;;;;;19.02;56.69;102160.81;10415606;28;20481;-78
2022/06/11 19:51:49;;;;;;;5.72;1.30;;;;;;;18.75;55.24;102157.00;10415678;28;20045;-77
2022/06/11 19:56:50;;;;;;;8.15;1.60;;;;;;;18.62;55.52;102166.41;10425368;28;20088;-76
2022/06/11 20:01:52;;;;;;;6.72;1.52;;;;;;;18.47;64.54;102166.22;10446802;28;20096;-78
2022/06/11 20:06:55;;;;;;;10.80;1.65;;;;;;;18.24;63.09;102174.59;10414979;28;20481;-77
2022/06/11 20:12:03;;;;;;;9.57;2.13;;;;;;;18.02;59.89;102179.50;10419469;28;20053;-76
2022/06/11 20:17:05;;;;;;;5.80;1.75;;;;;;;17.81;63.47;102189.56;10432109;28;20481;-77
2022/06/11 20:22:06;;;;;;;6.20;2.20;;;;;;;17.76;64.65;102187.72;10413181;28;20049;-77
2022/06/11 20:27:08;;;;;;;7.78;2.80;;;;;;;17.58;66.83;102193.50;10406503;28;20084;-77
2022/06/11 20:32:10;;;;;;;6.97;2.25;;;;;;;17.36;66.68;102191.38;10412139;28;20049;-76
2022/06/11 20:37:11;;;;;;;4.97;1.98;;;;;;;17.03;70.38;102203.78;10396212;28;20041;-76
2022/06/11 20:42:14;;;;;;;4.63;2.42;;;;;;;16.96;72.09;102212.31;10412388;28;20049;-75
2022/06/11 20:47:18;;;;;;;11.05;2.78;;;;;;;16.73;69.74;102207.47;10407954;28;20050;-77
2022/06/11 20:52:22;;;;;;;5.07;2.20;;;;;;;16.67;69.74;102204.75;10416622;28;20077;-76
2022/06/11 20:57:24;;;;;;;6.97;2.60;;;;;;;16.46;67.90;102206.03;10420733;28;20476;-77
2022/06/11 21:02:31;;;;;;;7.55;2.47;;;;;;;16.44;70.47;102206.84;10403036;28;20049;-76
2022/06/11 21:12:56;;;;;;;7.47;2.47;;;;;;;16.17;72.82;102213.16;10422678;28;20057;-76
2022/06/11 21:17:58;;;;;;;7.63;2.95;;;;;;;16.04;73.19;102217.22;10461269;28;20396;-76
2022/06/11 21:23:00;;;;;;;7.50;3.13;;;;;;;16.14;75.39;102210.50;10435399;28;20164;-77
2022/06/11 21:28:02;;;;;;;7.70;3.28;;;;;;;16.18;76.59;102212.31;10402239;28;20096;-76
2022/06/11 21:33:04;;;;;;;6.03;3.08;;;;;;;16.12;75.08;102200.03;10447632;28;20072;-77
2022/06/11 21:38:06;;;;;;;9.95;3.75;;;;;;;16.11;73.45;102206.13;10418400;28;20572;-77
2022/06/11 21:43:08;;;;;;;8.25;3.22;;;;;;;15.94;74.77;102207.41;10418479;28;20045;-76
2022/06/11 21:48:10;;;;;;;10.00;3.80;;;;;;;15.80;74.15;102207.03;10414073;28;20081;-75
2022/06/11 21:53:12;;;;;;;11.38;4.40;;;;;;;15.78;73.08;102209.59;10407305;28;20074;-75
2022/06/11 21:58:14;;;;;;;9.15;4.00;;;;;;;15.82;73.54;102210.56;10412979;28;20105;-75
2022/06/11 22:03:16;;;;;;;8.40;4.78;;;;;;;15.69;74.15;102214.56;10432067;28;20444;-76
2022/06/11 22:08:18;;;;;;;9.85;5.05;;;;;;;15.58;76.23;102222.06;10401261;28;20065;-75
2022/06/11 22:13:19;;;;;;;10.90;4.97;;;;;;;15.61;76.65;102221.28;10420257;28;20088;-75
2022/06/11 22:18:21;;;;;;;12.13;5.15;;;;;;;15.62;75.14;102212.63;10409994;28;20045;-76
2022/06/11 22:23:23;;;;;;;10.45;5.13;;;;;;;15.61;73.97;102216.06;10411971;28;20071;-75
2022/06/11 22:28:24;;;;;;;12.45;5.45;;;;;;;15.43;77.15;102225.16;10406551;28;20448;-75
2022/06/11 22:33:26;;;;;;;10.35;4.28;;;;;;;15.67;78.10;102226.66;10413160;28;20052;-75
2022/06/11 22:38:27;;;;;;;9.68;4.38;;;;;;;15.57;77.35;102219.44;10394180;28;20056;-76
2022/06/11 22:43:30;;;;;;;10.73;4.75;;;;;;;15.54;76.76;102223.72;10411854;28;20046;-76
2022/06/11 22:48:32;;;;;;;11.18;4.63;;;;;;;15.54;75.90;102230.63;10410797;28;20072;-75
2022/06/11 22:53:34;;;;;;;11.38;4.70;;;;;;;15.62;76.49;102223.94;10410992;28;20578;-75
2022/06/11 22:58:42;;;;;;;12.98;4.47;;;;;;;15.77;76.83;102236.41;10395143;28;20045;-75
2022/06/11 23:03:45;;;;;;;10.60;4.00;;;;;;;15.75;79.64;102238.09;10411520;28;20409;-76
2022/06/11 23:08:47;;;;;;;7.35;3.90;;;;;;;15.57;76.03;102235.91;10392663;28;20045;-75
2022/06/11 23:13:50;;;;;;;13.43;4.10;;;;;;;15.54;75.35;102247.09;10410380;28;20440;-75
2022/06/11 23:18:53;;;;;;;12.55;3.92;;;;;;;15.49;74.97;102250.38;10411156;28;20046;-75
2022/06/11 23:23:57;;;;;;;7.25;3.75;;;;;;;15.16;76.72;102249.50;10410551;28;20041;-76
2022/06/11 23:28:58;;;;;;;7.90;4.07;;;;;;;14.81;80.84;102245.91;10409013;28;20041;-76
2022/06/11 23:34:03;;;;;;;8.18;4.10;;;;;;;14.68;83.62;102239.44;10390684;28;20141;-76
2022/06/11 23:39:05;;;;;;;9.75;4.50;;;;;;;14.89;79.40;102234.91;10409252;28;20050;-76